Time;durP1;ratioP1;P1;durP2;ratioP2;P2;SDS_P1;SDS_P2;PMS_P1;PMS_P2;Temp;Humidity;BMP_temperature;BMP_pressure;BME280_temperature;BME280_humidity;BME280_pressure;Samples;Min_cycle;Max_cycle;Signal;HPM_P1;HPM_P2
2022/06/01 00:01:11;;;;;;;10.25;8.23;;;10.80;99.90;;;;;;5088353;28;20036;-76
2022/06/01 00:03:40;;;;;;;8.85;7.78;;;10.80;99.90;;;;;;5076994;28;20039;-76
2022/06/01 00:06:07;;;;;;;11.10;8.35;;;10.80;99.90;;;;;;5076455;28;20040;-77
2022/06/01 00:08:33;;;;;;;12.98;8.77;;;10.90;99.90;;;;;;5067472;28;20039;-78
2022/06/01 00:10:59;;;;;;;12.80;8.82;;;10.90;99.90;;;;;;5075330;28;20044;-78
2022/06/01 00:13:26;;;;;;;12.32;7.63;;;10.90;99.90;;;;;;5076231;28;20142;-78
2022/06/01 00:15:52;;;;;;;10.95;9.13;;;11.00;99.90;;;;;;5068349;28;20474;-77
2022/06/01 00:18:18;;;;;;;10.77;9.63;;;11.00;99.90;;;;;;5076367;28;20052;-78
2022/06/01 00:20:45;;;;;;;11.55;9.27;;;11.00;99.90;;;;;;5065538;28;20044;-77
2022/06/01 00:23:11;;;;;;;10.25;9.13;;;10.90;99.90;;;;;;5070753;28;20352;-79
2022/06/01 00:25:37;;;;;;;12.77;9.80;;;10.90;99.90;;;;;;5081714;28;20084;-77
2022/06/01 00:28:03;;;;;;;14.85;9.35;;;10.80;99.90;;;;;;5091036;28;20040;-77
2022/06/01 00:30:29;;;;;;;12.15;9.15;;;10.80;99.90;;;;;;5085786;28;20047;-78
2022/06/01 00:32:55;;;;;;;14.43;9.07;;;10.70;99.90;;;;;;5078143;28;20133;-77
2022/06/01 00:35:23;;;;;;;13.15;10.05;;;10.70;99.90;;;;;;5094343;28;20052;-76
2022/06/01 00:37:49;;;;;;;11.95;10.35;;;10.70;99.90;;;;;;5084244;28;20040;-77
2022/06/01 00:40:17;;;;;;;13.48;10.35;;;10.70;99.90;;;;;;5065837;28;20043;-78
2022/06/01 00:42:47;;;;;;;12.07;10.40;;;10.70;99.90;;;;;;5080433;28;20387;-78
2022/06/01 00:45:18;;;;;;;11.50;10.10;;;10.70;99.90;;;;;;5082559;28;20036;-78
2022/06/01 00:47:44;;;;;;;15.05;11.20;;;10.70;99.90;;;;;;5087082;28;20044;-79
2022/06/01 00:50:19;;;;;;;11.75;9.98;;;10.70;99.90;;;;;;5068891;28;20040;-78
2022/06/01 00:52:48;;;;;;;;;;;10.70;99.90;;;;;;5070077;28;20091;-78
2022/06/01 00:55:20;;;;;;;14.93;10.70;;;10.80;99.90;;;;;;5060907;28;19920;-78
2022/06/01 00:57:50;;;;;;;12.10;9.90;;;10.80;99.90;;;;;;5072161;28;20032;-77
2022/06/01 01:00:21;;;;;;;13.13;10.60;;;10.80;99.90;;;;;;5088725;28;20036;-78
2022/06/01 01:02:53;;;;;;;13.40;10.95;;;10.80;99.90;;;;;;5068309;28;20046;-77
2022/06/01 01:05:21;;;;;;;12.75;11.05;;;10.80;99.90;;;;;;5091734;27;20066;-77
2022/06/01 01:07:50;;;;;;;18.75;11.75;;;10.80;99.90;;;;;;5072646;28;20040;-77
2022/06/01 01:10:16;;;;;;;14.70;11.23;;;10.80;99.90;;;;;;5089564;28;20486;-77
2022/06/01 01:13:05;;;;;;;15.60;11.05;;;10.80;99.90;;;;;;5090950;28;20036;-78
2022/06/01 01:15:38;;;;;;;14.00;10.95;;;10.80;99.90;;;;;;5090710;28;20035;-78
2022/06/01 01:18:11;;;;;;;13.55;10.95;;;10.90;99.90;;;;;;5070548;28;20151;-77
2022/06/01 01:20:54;;;;;;;15.50;10.90;;;10.80;99.90;;;;;;5082377;27;20052;-77
2022/06/01 01:23:42;;;;;;;13.32;11.20;;;10.80;99.90;;;;;;5114465;27;20051;-77
2022/06/01 01:26:09;;;;;;;19.40;10.98;;;10.90;99.90;;;;;;5091156;28;20101;-76
2022/06/01 01:28:35;;;;;;;12.80;10.90;;;10.80;99.90;;;;;;5086050;28;20028;-76
2022/06/01 01:31:21;;;;;;;12.95;10.93;;;10.80;99.90;;;;;;5079442;28;20367;-76
2022/06/01 01:33:50;;;;;;;13.48;11.18;;;10.80;99.90;;;;;;5087795;28;20036;-78
2022/06/01 01:36:20;;;;;;;16.88;11.70;;;10.90;99.90;;;;;;5102680;27;20048;-78
2022/06/01 01:38:59;;;;;;;13.40;11.35;;;10.90;99.90;;;;;;5080161;28;20020;-78
2022/06/01 01:41:36;;;;;;;14.13;11.90;;;10.80;99.90;;;;;;5083806;28;20036;-77
2022/06/01 01:44:09;;;;;;;13.55;11.43;;;10.80;99.90;;;;;;5068608;28;20043;-78
2022/06/01 01:46:35;;;;;;;13.48;11.32;;;10.80;99.90;;;;;;5070146;28;20052;-78
2022/06/01 01:49:02;;;;;;;12.98;11.27;;;10.80;99.90;;;;;;5066716;28;20048;-78
2022/06/01 01:51:29;;;;;;;15.68;11.98;;;10.90;99.90;;;;;;5065163;28;20047;-78
2022/06/01 01:53:59;;;;;;;17.13;12.65;;;10.80;99.90;;;;;;5089603;28;20054;-78
2022/06/01 01:56:58;;;;;;;14.68;12.20;;;10.80;99.90;;;;;;5084886;28;20126;-79
2022/06/01 01:59:23;;;;;;;16.17;12.18;;;10.80;99.90;;;;;;5098023;27;20059;-78
2022/06/01 02:02:01;;;;;;;16.27;13.13;;;10.80;99.90;;;;;;5087925;28;20440;-78
2022/06/01 02:08:09;;;;;;;15.68;12.55;;;10.80;99.90;;;;;;5027257;28;20048;-78
2022/06/01 02:13:21;;;;;;;13.82;12.30;;;10.80;99.90;;;;;;5045715;28;19920;-75
2022/06/01 02:15:49;;;;;;;15.68;13.25;;;10.80;99.90;;;;;;5029301;28;20457;-77
2022/06/01 02:18:21;;;;;;;15.85;13.20;;;10.80;99.90;;;;;;5042660;28;20041;-76
2022/06/01 02:21:00;;;;;;;16.15;12.93;;;10.70;99.90;;;;;;5038725;28;20049;-77
2022/06/01 02:23:31;;;;;;;17.00;13.60;;;10.80;99.90;;;;;;5049101;28;20051;-76
2022/06/01 02:25:59;;;;;;;16.45;13.25;;;10.70;99.90;;;;;;5012923;28;20053;-76
2022/06/01 02:28:25;;;;;;;16.48;13.38;;;10.70;99.90;;;;;;5014075;28;20115;-77
2022/06/01 02:30:53;;;;;;;15.63;13.27;;;10.80;99.90;;;;;;5033362;28;20052;-77
2022/06/01 02:33:23;;;;;;;18.77;13.82;;;10.70;99.90;;;;;;5016893;28;20543;-78
2022/06/01 02:35:52;;;;;;;17.67;13.63;;;10.60;99.90;;;;;;5043255;28;20539;-78
2022/06/01 02:38:23;;;;;;;19.17;13.98;;;10.70;99.90;;;;;;5021635;28;20029;-77
2022/06/01 02:40:48;;;;;;;19.75;14.20;;;10.70;99.90;;;;;;5017683;28;20068;-78
2022/06/01 02:43:14;;;;;;;19.17;14.35;;;10.80;99.90;;;;;;5052963;27;20040;-77
2022/06/01 02:45:40;;;;;;;18.42;13.52;;;10.70;99.90;;;;;;5095877;28;20039;-77
2022/06/01 02:48:06;;;;;;;20.60;14.57;;;10.70;99.90;;;;;;5071552;28;20547;-77
2022/06/01 02:50:34;;;;;;;16.13;14.43;;;10.80;99.90;;;;;;5076906;27;20461;-77
2022/06/01 02:53:00;;;;;;;18.38;14.93;;;10.80;99.90;;;;;;5095522;28;20035;-77
2022/06/01 02:55:28;;;;;;;18.35;14.10;;;10.70;99.90;;;;;;5084380;28;20040;-75
2022/06/01 02:57:55;;;;;;;16.50;13.55;;;10.80;99.90;;;;;;5095266;27;20036;-74
2022/06/01 03:00:29;;;;;;;17.50;14.60;;;10.70;99.90;;;;;;5072577;28;20032;-78
2022/06/01 03:02:58;;;;;;;17.88;15.00;;;10.80;99.90;;;;;;5091149;28;20028;-78
2022/06/01 03:05:30;;;;;;;18.48;15.00;;;10.80;99.90;;;;;;5083080;27;20046;-78
2022/06/01 03:07:57;;;;;;;19.95;14.25;;;10.70;99.90;;;;;;5080323;28;20130;-78
2022/06/01 03:10:23;;;;;;;15.50;13.77;;;10.80;99.90;;;;;;5066433;27;20048;-78
2022/06/01 03:12:50;;;;;;;16.13;14.30;;;10.70;99.90;;;;;;5089138;28;20039;-78
2022/06/01 03:15:20;;;;;;;18.30;15.10;;;10.80;99.90;;;;;;5090257;28;20052;-79
2022/06/01 03:17:47;;;;;;;18.42;14.80;;;10.70;99.90;;;;;;5068955;28;21253;-78
2022/06/01 03:20:16;;;;;;;20.95;16.10;;;10.70;99.90;;;;;;5089164;27;20375;-77
2022/06/01 03:22:45;;;;;;;20.38;16.80;;;10.70;99.90;;;;;;5093760;28;20051;-77
2022/06/01 03:25:15;;;;;;;21.98;16.80;;;10.70;99.90;;;;;;5094259;27;20482;-77
2022/06/01 03:27:41;;;;;;;26.63;17.33;;;10.70;99.90;;;;;;5082770;28;20043;-77
2022/06/01 03:30:11;;;;;;;22.00;17.17;;;10.70;99.90;;;;;;5086768;28;20061;-76
2022/06/01 03:32:40;;;;;;;22.05;17.02;;;10.70;99.90;;;;;;5063928;28;20043;-77
2022/06/01 03:35:06;;;;;;;20.70;16.85;;;10.80;99.90;;;;;;5084069;28;20142;-77
2022/06/01 03:37:32;;;;;;;25.40;18.75;;;10.70;99.90;;;;;;5088826;28;20039;-77
2022/06/01 03:39:58;;;;;;;19.67;16.70;;;10.70;99.90;;;;;;5064715;28;20047;-79
2022/06/01 03:42:24;;;;;;;24.25;17.52;;;10.60;99.90;;;;;;5066792;28;20039;-77
2022/06/01 03:47:34;;;;;;;21.40;17.38;;;10.60;99.90;;;;;;5074702;28;20514;-77
2022/06/01 03:50:00;;;;;;;20.08;17.15;;;10.70;99.90;;;;;;5068286;28;20161;-78
2022/06/01 03:52:26;;;;;;;21.10;17.38;;;10.70;99.90;;;;;;5100003;28;20486;-76
2022/06/01 03:54:52;;;;;;;22.55;17.50;;;10.70;99.90;;;;;;5076707;28;20047;-77
2022/06/01 03:57:18;;;;;;;28.38;17.80;;;10.70;99.90;;;;;;5073364;28;20043;-77
2022/06/01 03:59:44;;;;;;;22.35;17.25;;;10.80;99.90;;;;;;5083134;28;20028;-78
2022/06/01 04:02:10;;;;;;;21.65;16.75;;;10.90;99.90;;;;;;5066842;28;20043;-78
2022/06/01 04:04:37;;;;;;;25.38;17.60;;;10.90;99.90;;;;;;5089073;28;20036;-77
2022/06/01 04:07:03;;;;;;;22.73;17.48;;;10.90;99.90;;;;;;5078249;28;20069;-77
2022/06/01 04:09:32;;;;;;;25.13;17.75;;;10.90;99.90;;;;;;5082166;28;20459;-77
2022/06/01 04:11:58;;;;;;;21.27;17.25;;;10.90;99.90;;;;;;5090850;28;20039;-78
2022/06/01 04:14:24;;;;;;;20.38;17.90;;;11.00;99.90;;;;;;5079157;28;20455;-79
2022/06/01 04:16:50;;;;;;;21.55;17.23;;;11.00;99.90;;;;;;5081122;28;20040;-77
2022/06/01 04:19:16;;;;;;;23.55;17.95;;;11.00;99.90;;;;;;5093773;28;20054;-78
2022/06/01 04:21:46;;;;;;;22.80;17.73;;;11.10;99.90;;;;;;5084480;28;20051;-78
2022/06/01 04:24:14;;;;;;;20.40;17.30;;;11.10;99.90;;;;;;5091932;28;20422;-77
2022/06/01 04:26:41;;;;;;;28.13;17.80;;;11.10;99.90;;;;;;5106525;28;20472;-75
2022/06/01 04:29:06;;;;;;;20.83;17.85;;;11.10;99.90;;;;;;5083530;28;20036;-77
2022/06/01 04:31:33;;;;;;;20.65;17.52;;;11.10;99.90;;;;;;5090934;27;20103;-78
2022/06/01 04:33:59;;;;;;;19.77;17.70;;;11.10;99.90;;;;;;5087847;28;20034;-78
2022/06/01 04:36:24;;;;;;;24.38;18.35;;;11.10;99.90;;;;;;5094004;28;20039;-77
2022/06/01 04:38:50;;;;;;;21.17;17.17;;;11.20;99.90;;;;;;5089874;28;20035;-78
2022/06/01 04:41:16;;;;;;;20.80;17.85;;;11.30;99.90;;;;;;5071473;28;20040;-79
2022/06/01 04:43:41;;;;;;;25.75;17.75;;;11.30;99.90;;;;;;5077050;28;20036;-79
2022/06/01 04:46:10;;;;;;;22.23;18.27;;;11.50;99.90;;;;;;5089544;28;20792;-79
2022/06/01 04:48:36;;;;;;;22.00;17.73;;;11.50;99.90;;;;;;5095960;27;20078;-78
2022/06/01 04:51:02;;;;;;;19.42;17.33;;;11.40;99.90;;;;;;5077032;28;20059;-78
2022/06/01 04:53:28;;;;;;;18.17;16.13;;;11.40;99.90;;;;;;5091327;27;20050;-78
2022/06/01 04:55:54;;;;;;;18.80;15.68;;;11.40;99.90;;;;;;5093749;28;20046;-79
2022/06/01 04:58:20;;;;;;;19.38;16.50;;;11.40;99.90;;;;;;5102118;27;20040;-78
2022/06/01 05:00:45;;;;;;;17.90;15.82;;;11.50;99.90;;;;;;5093447;28;20351;-78
2022/06/01 05:03:13;;;;;;;17.98;15.98;;;11.60;99.90;;;;;;5084486;27;20069;-78
2022/06/01 05:05:40;;;;;;;20.73;16.08;;;11.60;99.90;;;;;;5096338;28;20470;-78
2022/06/01 05:08:07;;;;;;;19.58;16.17;;;11.60;99.90;;;;;;5074085;27;20051;-78
2022/06/01 05:10:34;;;;;;;21.27;15.93;;;11.70;99.90;;;;;;5092856;28;20478;-78
2022/06/01 05:13:00;;;;;;;20.48;16.20;;;11.70;99.90;;;;;;5085643;28;20043;-77
2022/06/01 05:15:26;;;;;;;19.63;15.73;;;11.70;99.90;;;;;;5088491;28;20032;-78
2022/06/01 05:17:51;;;;;;;19.85;16.40;;;11.70;99.90;;;;;;5081530;28;20067;-77
2022/06/01 05:20:17;;;;;;;18.73;15.52;;;11.70;99.90;;;;;;5050835;28;20143;-76
2022/06/01 05:22:43;;;;;;;18.23;15.98;;;11.60;99.90;;;;;;5072263;28;20166;-78
2022/06/01 05:25:09;;;;;;;18.75;15.15;;;11.60;99.90;;;;;;5084434;28;20076;-79
2022/06/01 05:27:35;;;;;;;17.55;15.80;;;11.60;99.90;;;;;;5097162;28;20131;-78
2022/06/01 05:30:02;;;;;;;8.18;4.32;;;11.60;99.90;;;;;;5101513;28;20181;-79
2022/06/01 05:32:28;;;;;;;5.93;4.93;;;12.00;99.90;;;;;;5086644;28;20122;-84
2022/06/01 05:34:53;;;;;;;7.05;4.50;;;12.70;99.90;;;;;;5086295;28;20143;-79
2022/06/01 05:37:19;;;;;;;8.60;6.60;;;13.50;99.90;;;;;;5093430;28;20032;-79
2022/06/01 05:39:45;;;;;;;10.00;5.88;;;13.80;99.90;;;;;;5073159;28;20036;-82
2022/06/01 05:42:11;;;;;;;10.75;5.75;;;14.30;99.90;;;;;;5079943;28;20686;-79
2022/06/01 05:44:38;;;;;;;8.02;6.10;;;14.80;99.90;;;;;;5064213;28;20115;-81
2022/06/01 05:47:04;;;;;;;10.90;8.50;;;15.00;99.90;;;;;;5071845;28;20052;-80
2022/06/01 05:49:30;;;;;;;10.60;8.60;;;15.20;99.90;;;;;;5089504;28;20131;-77
2022/06/01 05:51:57;;;;;;;14.98;7.32;;;15.50;99.90;;;;;;5087485;28;20039;-75
2022/06/01 05:54:23;;;;;;;11.07;7.22;;;15.40;99.90;;;;;;5082612;28;20380;-76
2022/06/01 05:56:50;;;;;;;8.85;7.38;;;15.70;99.90;;;;;;5084270;28;20038;-78
2022/06/01 05:59:16;;;;;;;13.73;9.18;;;15.90;99.90;;;;;;5073238;28;20109;-81
2022/06/01 06:01:45;;;;;;;13.43;11.50;;;16.00;99.90;;;;;;5075442;28;20090;-78
2022/06/01 06:04:11;;;;;;;10.88;8.65;;;16.00;99.90;;;;;;5087472;28;20039;-79
2022/06/01 06:06:36;;;;;;;13.30;10.02;;;16.20;99.90;;;;;;5091406;28;20048;-83
2022/06/01 06:09:08;;;;;;;13.65;7.90;;;16.30;99.90;;;;;;5098118;28;20082;-82
2022/06/01 06:11:37;;;;;;;11.85;8.73;;;16.50;99.90;;;;;;5104795;27;20126;-79
2022/06/01 06:14:03;;;;;;;9.00;7.90;;;16.70;99.90;;;;;;5081326;28;20043;-79
2022/06/01 06:16:34;;;;;;;12.23;9.65;;;16.90;99.90;;;;;;5091153;28;20552;-80
2022/06/01 06:19:01;;;;;;;8.95;7.95;;;17.00;99.90;;;;;;5093213;27;20052;-77
2022/06/01 06:21:29;;;;;;;12.75;11.38;;;17.30;99.90;;;;;;5093039;27;20035;-78
2022/06/01 06:24:10;;;;;;;10.98;8.38;;;17.10;99.90;;;;;;5075359;27;20119;-81
2022/06/01 06:26:37;;;;;;;13.15;11.02;;;17.10;99.90;;;;;;5109864;27;20040;-79
2022/06/01 06:29:07;;;;;;;9.30;8.35;;;16.90;99.90;;;;;;5075071;28;20422;-78
2022/06/01 06:31:32;;;;;;;9.55;8.02;;;16.50;99.90;;;;;;5070060;28;20061;-78
2022/06/01 06:33:58;;;;;;;17.17;8.10;;;16.00;99.90;;;;;;5074063;28;20043;-80
2022/06/01 06:36:24;;;;;;;13.02;5.97;;;15.60;99.90;;;;;;5069933;28;20043;-78
2022/06/01 06:38:50;;;;;;;10.18;6.25;;;14.50;99.90;;;;;;5093929;27;20047;-77
2022/06/01 06:41:16;;;;;;;10.65;7.28;;;14.30;99.90;;;;;;5069329;28;21897;-78
2022/06/01 06:43:42;;;;;;;16.77;6.13;;;13.90;99.90;;;;;;5087206;27;20444;-74
2022/06/01 06:46:11;;;;;;;12.05;5.57;;;13.30;99.90;;;;;;5079641;27;20028;-80
2022/06/01 06:48:38;;;;;;;10.27;5.93;;;12.90;99.90;;;;;;5100430;28;20100;-76
2022/06/01 06:51:04;;;;;;;10.05;6.10;;;12.60;99.90;;;;;;5081998;28;20093;-76
2022/06/01 06:53:30;;;;;;;9.38;6.25;;;12.40;99.90;;;;;;5088120;28;20471;-76
2022/06/01 06:55:56;;;;;;;9.77;7.35;;;12.20;99.90;;;;;;5085030;28;20078;-77
2022/06/01 06:58:22;;;;;;;13.70;7.60;;;12.20;99.90;;;;;;5060635;28;20518;-78
2022/06/01 07:00:48;;;;;;;11.23;8.35;;;12.20;99.90;;;;;;5085959;27;20031;-74
2022/06/01 07:03:14;;;;;;;12.48;8.57;;;12.20;99.90;;;;;;5077854;27;20050;-77
2022/06/01 07:06:17;;;;;;;13.30;9.63;;;12.30;99.90;;;;;;5081646;28;20051;-79
2022/06/01 07:08:34;;;;;;;13.40;10.82;;;12.20;99.90;;;;;;5085495;27;20367;-78
2022/06/01 07:11:00;;;;;;;12.77;10.60;;;12.20;99.90;;;;;;5084655;27;20104;-76
2022/06/01 07:13:29;;;;;;;12.20;10.70;;;12.30;99.90;;;;;;5092551;28;20042;-76
2022/06/01 07:16:07;;;;;;;12.02;10.20;;;12.40;99.90;;;;;;5091569;28;20133;-75
2022/06/01 07:18:34;;;;;;;8.50;5.95;;;12.40;99.90;;;;;;5089025;28;20052;-75
2022/06/01 07:21:00;;;;;;;12.48;9.82;;;12.60;99.90;;;;;;5085273;28;20504;-77
2022/06/01 07:23:26;;;;;;;11.05;9.65;;;12.80;99.90;;;;;;5068129;28;20135;-76
2022/06/01 07:25:53;;;;;;;11.57;9.63;;;12.90;99.90;;;;;;5066526;28;20138;-79
2022/06/01 07:28:22;;;;;;;11.65;9.38;;;13.20;99.90;;;;;;5066808;28;20117;-77
2022/06/01 07:30:56;;;;;;;10.15;9.10;;;13.40;99.90;;;;;;5088394;28;20140;-77
2022/06/01 07:33:24;;;;;;;10.20;9.20;;;13.60;99.90;;;;;;5084880;27;21561;-78
2022/06/01 07:35:50;;;;;;;11.80;8.77;;;13.70;99.90;;;;;;5094027;27;20079;-77
2022/06/01 07:43:43;;;;;;;9.57;8.65;;;14.20;99.90;;;;;;5075335;28;20139;-77
2022/06/01 07:46:10;;;;;;;9.77;7.07;;;14.20;99.90;;;;;;5073712;28;20131;-76
2022/06/01 07:48:36;;;;;;;8.30;6.63;;;14.50;99.90;;;;;;5078300;28;20043;-77
2022/06/01 07:51:02;;;;;;;8.55;7.47;;;14.70;99.90;;;;;;5086220;28;20447;-75
2022/06/01 07:53:28;;;;;;;7.60;6.90;;;14.90;99.90;;;;;;5060728;28;20352;-76
2022/06/01 07:55:53;;;;;;;10.65;6.93;;;15.20;99.90;;;;;;5087629;28;20052;-77
2022/06/01 07:58:19;;;;;;;8.63;7.30;;;15.30;99.90;;;;;;5063541;28;20398;-77
2022/06/01 08:00:45;;;;;;;8.10;6.75;;;15.50;99.90;;;;;;5094417;28;20197;-76
2022/06/01 08:03:12;;;;;;;10.52;6.75;;;15.30;99.90;;;;;;5079910;28;20051;-76
2022/06/01 08:05:38;;;;;;;7.70;6.00;;;15.50;99.90;;;;;;5078638;28;20040;-75
2022/06/01 08:08:05;;;;;;;6.88;5.70;;;15.60;99.90;;;;;;5100540;28;20049;-78
2022/06/01 08:10:31;;;;;;;8.07;5.70;;;15.80;99.90;;;;;;5068052;28;20047;-77
2022/06/01 08:13:09;;;;;;;6.95;6.25;;;15.80;99.90;;;;;;5072682;28;20040;-77
2022/06/01 08:15:49;;;;;;;6.30;5.25;;;15.80;99.90;;;;;;5085584;28;20047;-78
2022/06/01 08:18:18;;;;;;;6.85;6.15;;;15.70;99.90;;;;;;5092975;28;20136;-78
2022/06/01 08:20:45;;;;;;;6.90;5.82;;;15.50;99.90;;;;;;5082093;28;20494;-79
2022/06/01 08:23:11;;;;;;;8.90;5.78;;;15.60;99.90;;;;;;5092689;27;20066;-79
2022/06/01 08:25:37;;;;;;;7.38;6.30;;;15.60;99.90;;;;;;5086624;28;20185;-77
2022/06/01 08:28:04;;;;;;;7.00;6.30;;;15.50;99.90;;;;;;5092718;28;20459;-79
2022/06/01 08:30:33;;;;;;;7.45;6.57;;;15.60;99.90;;;;;;5060765;28;20037;-75
2022/06/01 08:33:00;;;;;;;7.15;6.47;;;15.70;99.90;;;;;;5056285;28;20048;-75
2022/06/01 08:35:32;;;;;;;7.18;6.47;;;15.80;99.90;;;;;;5066857;28;20117;-77
2022/06/01 08:37:59;;;;;;;8.05;6.28;;;15.90;99.90;;;;;;5067187;28;20097;-76
2022/06/01 08:40:48;;;;;;;7.13;5.88;;;16.00;99.90;;;;;;5067829;28;20127;-76
2022/06/01 08:43:16;;;;;;;6.22;5.63;;;16.10;99.90;;;;;;5074714;28;20048;-76
2022/06/01 08:45:49;;;;;;;6.32;5.72;;;15.90;99.90;;;;;;5065349;28;20505;-74
2022/06/01 08:48:41;;;;;;;6.13;5.53;;;15.90;99.90;;;;;;5065371;28;20063;-76
2022/06/01 08:51:08;;;;;;;6.03;5.32;;;16.20;99.90;;;;;;5060177;28;20487;-76
2022/06/01 08:53:35;;;;;;;6.88;5.28;;;16.30;99.90;;;;;;5044746;28;20130;-77
2022/06/01 08:56:09;;;;;;;6.10;5.55;;;16.00;99.90;;;;;;5063004;28;20049;-77
2022/06/01 08:58:51;;;;;;;5.80;5.30;;;15.80;99.90;;;;;;5046607;28;20054;-77
2022/06/01 09:01:32;;;;;;;6.88;6.22;;;15.70;99.90;;;;;;5075431;28;20068;-76
2022/06/01 09:04:04;;;;;;;5.80;5.15;;;15.90;99.90;;;;;;5051885;28;20490;-76
2022/06/01 09:06:36;;;;;;;5.35;4.78;;;16.00;99.90;;;;;;5062363;28;20060;-76
2022/06/01 09:09:07;;;;;;;5.75;5.25;;;16.00;99.90;;;;;;5077853;28;20056;-76
2022/06/01 09:11:37;;;;;;;6.28;5.55;;;16.10;99.90;;;;;;5068123;28;20052;-75
2022/06/01 09:14:18;;;;;;;6.00;5.05;;;16.20;99.90;;;;;;5067742;28;20074;-77
2022/06/01 09:16:48;;;;;;;5.38;4.88;;;16.30;99.90;;;;;;5069078;28;20314;-76
2022/06/01 09:19:19;;;;;;;8.00;4.95;;;16.60;99.90;;;;;;5066342;28;20550;-76
2022/06/01 09:24:48;;;;;;;5.18;4.68;;;17.20;99.90;;;;;;5061410;28;20043;-75
2022/06/01 09:27:15;;;;;;;5.70;4.68;;;17.30;99.90;;;;;;5049426;28;20044;-76
2022/06/01 09:29:52;;;;;;;4.80;4.40;;;17.10;99.90;;;;;;5051616;28;20048;-76
2022/06/01 09:32:30;;;;;;;5.38;4.88;;;17.00;99.90;;;;;;5052442;28;20052;-77
2022/06/01 09:35:04;;;;;;;6.40;5.15;;;16.90;99.90;;;;;;5050145;28;20088;-77
2022/06/01 09:37:36;;;;;;;5.38;4.88;;;16.70;99.90;;;;;;5063726;28;20076;-78
2022/06/01 09:40:19;;;;;;;4.95;4.45;;;16.70;99.90;;;;;;5063960;28;20321;-78
2022/06/01 09:42:52;;;;;;;5.18;4.68;;;16.50;99.90;;;;;;5070143;28;20446;-77
2022/06/01 09:45:24;;;;;;;4.43;4.00;;;16.30;99.90;;;;;;5066155;28;20048;-76
2022/06/01 09:47:51;;;;;;;4.40;4.00;;;16.00;99.90;;;;;;5074587;28;20044;-78
2022/06/01 09:50:32;;;;;;;3.90;3.60;;;15.90;99.90;;;;;;5053503;28;20048;-75
2022/06/01 09:52:58;;;;;;;4.18;3.70;;;15.70;99.90;;;;;;5080722;28;20040;-77
2022/06/01 09:55:26;;;;;;;4.32;3.80;;;15.70;99.90;;;;;;5086260;28;20394;-76
2022/06/01 09:58:09;;;;;;;2.88;2.65;;;15.80;99.90;;;;;;5082820;28;20052;-78
2022/06/01 10:06:30;;;;;;;2.65;2.00;;;16.40;99.90;;;;;;5082589;28;20473;-79
2022/06/01 10:09:25;;;;;;;2.80;1.70;;;16.40;99.90;;;;;;5091158;28;20486;-79
2022/06/01 10:11:54;;;;;;;1.20;1.10;;;16.40;99.90;;;;;;5062427;28;20106;-76
2022/06/01 10:14:34;;;;;;;1.70;1.30;;;16.30;99.90;;;;;;5077244;28;20049;-76
2022/06/01 10:17:17;;;;;;;2.13;1.63;;;16.70;99.90;;;;;;5077141;28;20545;-80
2022/06/01 10:20:15;;;;;;;1.80;1.70;;;16.80;99.90;;;;;;5076195;28;20044;-79
2022/06/01 10:23:11;;;;;;;2.42;1.80;;;17.20;99.90;;;;;;4989291;28;20045;-79
2022/06/01 10:25:50;;;;;;;2.05;1.88;;;16.70;99.90;;;;;;5004930;28;20041;-78
2022/06/01 10:28:20;;;;;;;1.88;1.40;;;16.70;99.90;;;;;;4968357;28;20514;-72
2022/06/01 10:30:51;;;;;;;8.60;1.50;;;16.70;99.90;;;;;;5004491;28;20437;-74
2022/06/01 10:33:19;;;;;;;1.85;1.60;;;16.30;99.90;;;;;;4991614;28;20073;-74
2022/06/01 10:35:50;;;;;;;1.40;1.10;;;16.40;99.90;;;;;;4991791;28;20058;-76
2022/06/01 10:38:41;;;;;;;2.28;1.20;;;16.20;99.90;;;;;;5005506;28;20046;-82
2022/06/01 10:41:25;;;;;;;1.48;1.38;;;16.40;99.90;;;;;;5012381;28;20042;-81
2022/06/01 10:44:07;;;;;;;1.40;1.30;;;16.50;99.90;;;;;;4987800;28;20425;-82
2022/06/01 10:46:49;;;;;;;1.70;1.60;;;16.60;99.90;;;;;;5001573;28;20053;-79
2022/06/01 10:49:39;;;;;;;1.75;1.65;;;16.60;99.90;;;;;;4986978;28;20511;-79
2022/06/01 10:52:33;;;;;;;1.90;1.70;;;16.50;99.90;;;;;;4989618;28;20112;-81
2022/06/01 10:55:13;;;;;;;1.48;1.38;;;16.20;99.90;;;;;;5001605;28;20049;-83
2022/06/01 10:57:43;;;;;;;1.40;1.10;;;16.20;99.90;;;;;;5010837;28;20437;-82
2022/06/01 11:00:16;;;;;;;1.58;1.00;;;15.90;99.90;;;;;;5062159;28;20039;-78
2022/06/01 11:03:05;;;;;;;1.85;1.33;;;15.60;99.90;;;;;;5047664;28;20051;-79
2022/06/01 11:05:55;;;;;;;3.00;1.85;;;15.50;99.90;;;;;;5067443;28;20063;-80
2022/06/01 11:08:46;;;;;;;1.90;1.80;;;15.30;99.90;;;;;;5058516;28;20130;-76
2022/06/01 11:11:20;;;;;;;4.20;2.22;;;15.00;99.90;;;;;;5064097;28;20112;-77
2022/06/01 11:14:01;;;;;;;4.68;2.40;;;14.90;99.90;;;;;;5047834;28;20104;-79
2022/06/01 11:16:45;;;;;;;9.23;2.08;;;14.80;99.90;;;;;;5050808;28;20048;-86
2022/06/01 11:19:34;;;;;;;3.38;2.08;;;15.00;99.90;;;;;;5056646;28;22282;-78
2022/06/01 11:22:09;;;;;;;3.40;1.90;;;15.20;99.90;;;;;;5073659;28;20168;-83
2022/06/01 11:24:52;;;;;;;;;;;15.60;99.90;;;;;;5060554;28;20036;-84
2022/06/01 11:27:21;;;;;;;4.03;1.95;;;15.90;99.90;;;;;;5047507;28;19974;-83
2022/06/01 11:30:15;;;;;;;4.35;2.20;;;16.30;99.90;;;;;;5081016;28;20040;-82
2022/06/01 11:32:56;;;;;;;3.03;1.95;;;16.70;99.90;;;;;;5066027;28;20049;-80
2022/06/01 11:35:37;;;;;;;6.70;2.03;;;17.00;99.90;;;;;;5078692;28;20401;-77
2022/06/01 11:38:10;;;;;;;2.10;1.98;;;17.40;99.90;;;;;;5080123;28;20040;-77
2022/06/01 11:40:46;;;;;;;1.92;1.70;;;17.40;99.90;;;;;;5084200;28;20040;-78
2022/06/01 11:43:35;;;;;;;1.60;1.50;;;17.50;99.90;;;;;;5074301;28;20532;-79
2022/06/01 11:46:20;;;;;;;1.08;1.02;;;17.40;99.90;;;;;;5051996;28;20055;-78
2022/06/01 11:48:55;;;;;;;1.88;1.23;;;17.10;99.90;;;;;;5070830;28;20055;-78
2022/06/01 11:51:46;;;;;;;3.50;1.40;;;17.40;99.90;;;;;;5047540;28;20110;-80
2022/06/01 11:54:14;;;;;;;1.95;1.33;;;17.50;99.90;;;;;;5072804;28;20137;-80
2022/06/01 11:56:52;;;;;;;1.52;1.42;;;17.40;99.90;;;;;;5068249;28;20040;-79
2022/06/01 11:59:28;;;;;;;5.03;1.70;;;17.60;99.90;;;;;;5054539;28;20112;-77
2022/06/01 12:01:57;;;;;;;1.92;1.77;;;17.70;99.90;;;;;;5066050;28;20115;-77
2022/06/01 12:04:50;;;;;;;3.13;2.20;;;18.00;99.90;;;;;;5076096;28;20173;-78
2022/06/01 12:07:23;;;;;;;3.95;2.00;;;17.70;99.90;;;;;;5074623;28;20066;-77
2022/06/01 12:10:03;;;;;;;6.57;1.50;;;17.60;99.90;;;;;;5060216;28;20052;-79
2022/06/01 12:12:32;;;;;;;3.28;1.60;;;18.60;99.90;;;;;;5066907;28;20102;-78
2022/06/01 12:15:19;;;;;;;2.45;1.83;;;18.60;99.90;;;;;;5059091;28;20052;-77
2022/06/01 12:18:29;;;;;;;4.57;1.80;;;18.60;99.90;;;;;;5091749;28;20043;-80
2022/06/01 12:21:49;;;;;;;1.58;1.25;;;17.90;99.90;;;;;;5016406;28;20135;-79
2022/06/01 12:30:05;;;;;;;2.90;2.00;;;17.50;99.90;;;;;;5026698;28;20045;-77
2022/06/01 12:33:00;;;;;;;3.20;2.40;;;17.10;99.90;;;;;;5023446;28;20132;-77
2022/06/01 12:35:45;;;;;;;3.17;2.88;;;16.90;99.90;;;;;;5006265;28;20207;-77
2022/06/01 12:38:20;;;;;;;5.95;2.78;;;16.60;99.90;;;;;;5008509;28;20050;-78
2022/06/01 12:41:09;;;;;;;2.78;2.47;;;16.50;99.90;;;;;;5004296;28;20057;-79
2022/06/01 12:43:37;;;;;;;2.60;2.20;;;16.50;99.90;;;;;;4989821;28;20048;-78
2022/06/01 12:46:02;;;;;;;2.17;1.90;;;16.30;99.90;;;;;;5009240;28;20172;-79
2022/06/01 12:48:28;;;;;;;2.03;1.30;;;16.10;99.90;;;;;;5020881;28;20056;-81
2022/06/01 12:51:02;;;;;;;1.33;1.23;;;15.90;99.90;;;;;;5004989;28;20082;-78
2022/06/01 12:53:41;;;;;;;1.17;1.02;;;16.00;99.90;;;;;;5034865;28;20045;-81
2022/06/01 12:56:22;;;;;;;2.80;1.10;;;15.80;99.90;;;;;;5071518;28;20242;-78
2022/06/01 12:58:50;;;;;;;1.35;1.00;;;15.50;99.90;;;;;;5072187;28;20110;-77
2022/06/01 13:01:20;;;;;;;1.10;1.00;;;15.30;99.90;;;;;;5052867;28;20042;-77
2022/06/01 13:04:05;;;;;;;1.60;1.10;;;15.20;99.90;;;;;;5053382;28;20056;-78
2022/06/01 13:06:33;;;;;;;1.33;1.23;;;15.10;99.90;;;;;;5033720;28;20169;-76
2022/06/01 13:09:05;;;;;;;6.22;1.67;;;14.90;99.90;;;;;;5050698;28;20040;-76
2022/06/01 13:11:33;;;;;;;2.00;1.67;;;14.80;99.90;;;;;;5055538;28;20064;-78
2022/06/01 13:14:08;;;;;;;2.88;1.90;;;14.70;99.90;;;;;;5045699;28;20147;-77
2022/06/01 13:16:38;;;;;;;1.52;1.42;;;14.60;99.90;;;;;;5018412;28;20530;-77
2022/06/01 13:19:14;;;;;;;2.88;1.20;;;14.70;99.90;;;;;;5020275;28;20060;-78
2022/06/01 13:21:43;;;;;;;2.13;1.33;;;14.60;99.90;;;;;;5079615;28;20055;-78
2022/06/01 13:24:10;;;;;;;2.53;1.30;;;14.60;99.90;;;;;;5066643;27;20056;-78
2022/06/01 13:26:44;;;;;;;1.90;1.70;;;14.40;99.90;;;;;;5060331;28;20039;-77
2022/06/01 13:29:16;;;;;;;1.53;1.20;;;14.50;99.90;;;;;;5090798;28;20108;-80